createdAt,value
2018-06-08T00:00:28.743Z,20.97
2018-06-08T00:02:55.647Z,20.95
2018-06-08T00:05:22.785Z,20.92
2018-06-08T00:07:49.692Z,20.91
2018-06-08T00:10:16.615Z,20.89
2018-06-08T00:12:43.524Z,20.87
2018-06-08T00:15:10.443Z,20.85
2018-06-08T00:17:37.378Z,20.81
2018-06-08T00:20:04.371Z,20.78
2018-06-08T00:22:31.318Z,20.77
2018-06-08T00:24:58.257Z,20.74
2018-06-08T00:27:25.163Z,20.72
2018-06-08T00:29:52.074Z,20.69
2018-06-08T00:32:19.017Z,20.67
2018-06-08T00:34:45.922Z,20.64
2018-06-08T00:37:12.956Z,20.60
2018-06-08T00:39:39.874Z,20.58
2018-06-08T00:42:06.971Z,20.54
2018-06-08T00:44:33.891Z,20.50
2018-06-08T00:47:00.977Z,20.48
2018-06-08T00:49:27.931Z,20.46
2018-06-08T00:51:54.887Z,20.43
2018-06-08T00:54:21.959Z,20.39
2018-06-08T00:57:09.602Z,20.36
2018-06-08T00:59:36.519Z,20.31
2018-06-08T01:02:03.483Z,20.28
2018-06-08T01:04:30.405Z,20.26
2018-06-08T01:06:57.387Z,20.21
2018-06-08T01:09:24.514Z,20.15
2018-06-08T01:11:51.502Z,20.11
2018-06-08T01:14:24.638Z,20.08
2018-06-08T01:16:51.570Z,20.03
2018-06-08T01:19:18.495Z,19.99
2018-06-08T01:21:45.478Z,19.97
2018-06-08T01:24:12.374Z,19.93
2018-06-08T01:26:39.303Z,19.88
2018-06-08T01:29:06.261Z,19.83
2018-06-08T01:31:52.131Z,19.78
2018-06-08T01:34:19.315Z,19.75
2018-06-08T01:36:46.297Z,19.71
2018-06-08T01:39:13.257Z,19.68
2018-06-08T01:41:40.347Z,19.63
2018-06-08T01:44:07.259Z,19.59
2018-06-08T01:46:34.255Z,19.56
2018-06-08T01:49:01.155Z,19.52
2018-06-08T01:51:28.103Z,19.48
2018-06-08T01:53:55.599Z,19.43
2018-06-08T01:56:22.519Z,19.36
2018-06-08T01:58:49.432Z,19.32
2018-06-08T02:01:16.386Z,19.28
2018-06-08T02:03:43.315Z,19.26
2018-06-08T02:06:10.228Z,19.23
2018-06-08T02:08:37.247Z,19.21
2018-06-08T02:11:04.158Z,19.19
2018-06-08T02:13:31.330Z,19.17
2018-06-08T02:15:58.237Z,19.14
2018-06-08T02:18:25.227Z,19.11
2018-06-08T02:20:52.142Z,19.10
2018-06-08T02:23:19.090Z,19.08
2018-06-08T02:25:46.012Z,19.05
2018-06-08T02:28:12.999Z,19.03
2018-06-08T02:30:39.948Z,19.01
2018-06-08T02:33:06.910Z,18.97
2018-06-08T02:35:33.940Z,18.96
2018-06-08T02:38:00.879Z,18.95
2018-06-08T02:40:27.790Z,18.93
2018-06-08T02:42:55.656Z,18.91
2018-06-08T02:45:22.568Z,18.88
2018-06-08T02:47:49.522Z,18.86
2018-06-08T02:50:16.539Z,18.76
2018-06-08T02:52:43.887Z,18.84
2018-06-08T02:55:10.910Z,18.83
2018-06-08T02:57:37.927Z,18.81
2018-06-08T03:00:05.055Z,18.80
2018-06-08T03:02:32.099Z,18.76
2018-06-08T03:04:59.167Z,18.74
2018-06-08T03:07:26.194Z,18.73
2018-06-08T03:09:53.159Z,18.71
2018-06-08T03:12:20.160Z,18.71
2018-06-08T03:14:47.152Z,18.69
2018-06-08T03:17:14.107Z,18.70
2018-06-08T03:19:41.008Z,18.70
2018-06-08T03:22:08.003Z,18.69
2018-06-08T03:24:34.913Z,18.72
2018-06-08T03:27:01.815Z,18.77
2018-06-08T03:29:28.731Z,18.81
2018-06-08T03:31:55.751Z,18.86
2018-06-08T03:34:22.677Z,18.89
2018-06-08T03:36:49.664Z,18.90
2018-06-08T03:39:16.572Z,18.92
2018-06-08T03:41:43.483Z,18.92
2018-06-08T03:44:10.390Z,18.97
2018-06-08T03:46:37.350Z,19.00
2018-06-08T03:49:04.318Z,19.03
2018-06-08T03:51:31.335Z,19.07
2018-06-08T03:53:58.283Z,19.09
2018-06-08T03:56:25.275Z,19.08
2018-06-08T03:58:52.312Z,19.11
2018-06-08T04:01:19.252Z,19.12
2018-06-08T04:03:46.176Z,19.15
2018-06-08T04:06:13.096Z,19.19
2018-06-08T04:08:40.018Z,19.25
2018-06-08T04:11:07.027Z,19.30
2018-06-08T04:13:34.006Z,19.35
2018-06-08T04:16:00.942Z,19.37
2018-06-08T04:18:28.067Z,19.40
2018-06-08T04:20:54.968Z,19.42
2018-06-08T04:23:21.883Z,19.44
2018-06-08T04:25:48.977Z,19.43
2018-06-08T04:28:15.883Z,19.43
2018-06-08T04:30:42.794Z,19.43
2018-06-08T04:33:10.099Z,19.43
2018-06-08T04:35:37.024Z,19.55
2018-06-08T04:38:04.027Z,19.80
2018-06-08T04:40:30.967Z,20.12
2018-06-08T04:42:58.043Z,20.24
2018-06-08T04:45:24.935Z,20.26
2018-06-08T04:47:51.853Z,20.22
2018-06-08T04:50:18.842Z,20.10
2018-06-08T04:52:45.867Z,20.06
2018-06-08T04:55:12.813Z,20.05
2018-06-08T04:57:39.739Z,20.08
2018-06-08T05:00:06.739Z,20.11
2018-06-08T05:02:33.651Z,20.13
2018-06-08T05:05:00.631Z,20.14
2018-06-08T05:07:27.527Z,20.15
2018-06-08T05:09:54.567Z,20.14
2018-06-08T05:12:21.467Z,20.14
2018-06-08T05:14:48.407Z,20.21
2018-06-08T05:17:15.289Z,20.23
2018-06-08T05:19:42.203Z,20.21
2018-06-08T05:22:09.114Z,20.24
2018-06-08T05:24:36.041Z,20.29
2018-06-08T05:27:03.081Z,20.33
2018-06-08T05:29:30.027Z,20.37
2018-06-08T05:31:57.091Z,20.43
2018-06-08T05:34:24.007Z,20.51
2018-06-08T05:36:50.931Z,20.57
2018-06-08T05:39:17.845Z,20.60
2018-06-08T05:41:45.981Z,20.66
2018-06-08T05:44:12.945Z,20.71
2018-06-08T05:46:39.851Z,20.79
2018-06-08T05:49:06.758Z,20.86
2018-06-08T05:51:33.678Z,20.92
2018-06-08T05:54:00.630Z,21.00
2018-06-08T05:56:27.667Z,21.06
2018-06-08T05:58:54.631Z,21.14
2018-06-08T06:01:21.580Z,21.22
2018-06-08T06:03:48.522Z,21.25
2018-06-08T06:06:15.487Z,21.36
2018-06-08T06:08:42.415Z,21.40
2018-06-08T06:11:09.363Z,21.46
2018-06-08T06:13:36.278Z,21.54
2018-06-08T06:16:03.275Z,21.63
2018-06-08T06:18:30.356Z,21.70
2018-06-08T06:20:57.339Z,21.78
2018-06-08T06:23:24.267Z,21.88
2018-06-08T06:25:51.198Z,21.95
2018-06-08T06:28:18.119Z,22.02
2018-06-08T06:30:45.107Z,22.11
2018-06-08T06:33:12.003Z,22.20
2018-06-08T06:35:38.914Z,22.29
2018-06-08T06:38:05.812Z,22.28
2018-06-08T06:40:32.747Z,22.45
2018-06-08T06:42:59.643Z,22.52
2018-06-08T06:45:26.559Z,22.60
2018-06-08T06:47:53.527Z,22.68
2018-06-08T06:50:20.459Z,22.73
2018-06-08T06:52:47.368Z,22.83
2018-06-08T06:55:14.282Z,22.94
2018-06-08T06:57:41.177Z,22.99
2018-06-08T07:00:08.171Z,23.06
2018-06-08T07:02:35.095Z,23.15
2018-06-08T07:05:02.154Z,23.24
2018-06-08T07:07:29.099Z,23.31
2018-06-08T07:09:56.235Z,23.38
2018-06-08T07:12:23.146Z,23.47
2018-06-08T07:14:50.085Z,23.55
2018-06-08T07:17:16.995Z,23.60
2018-06-08T07:19:43.951Z,23.70
2018-06-08T07:22:10.855Z,23.74
2018-06-08T07:24:38.724Z,23.84
2018-06-08T07:27:05.727Z,23.93
2018-06-08T07:29:32.631Z,23.96
2018-06-08T07:31:59.605Z,24.03
2018-06-08T07:34:26.471Z,24.05
2018-06-08T07:36:53.519Z,24.11
2018-06-08T07:39:20.456Z,24.17
2018-06-08T07:41:47.394Z,24.22
2018-06-08T07:44:14.295Z,24.28
2018-06-08T07:46:41.262Z,24.33
2018-06-08T07:49:08.192Z,24.31
2018-06-08T07:51:35.125Z,24.40
2018-06-08T07:54:02.355Z,24.43
2018-06-08T07:56:29.297Z,24.53
2018-06-08T07:58:56.235Z,24.62
2018-06-08T08:01:23.213Z,24.72
2018-06-08T08:03:50.138Z,24.85
2018-06-08T08:06:17.034Z,25.01
2018-06-08T08:08:44.863Z,25.12
2018-06-08T08:11:12.092Z,25.20
2018-06-08T08:13:39.019Z,25.26
2018-06-08T08:16:05.960Z,25.34
2018-06-08T08:18:32.860Z,25.42
2018-06-08T08:20:59.882Z,25.49
2018-06-08T08:23:26.870Z,25.52
2018-06-08T08:25:53.827Z,25.52
2018-06-08T08:28:20.704Z,25.61
2018-06-08T08:30:47.712Z,25.64
2018-06-08T08:33:14.680Z,25.74
2018-06-08T08:35:41.691Z,25.77
2018-06-08T08:38:08.651Z,25.80
2018-06-08T08:40:35.575Z,25.77
2018-06-08T08:43:02.823Z,25.77
2018-06-08T08:45:29.752Z,25.90
2018-06-08T08:47:56.716Z,25.99
2018-06-08T08:50:23.680Z,26.09
2018-06-08T08:52:50.624Z,26.11
2018-06-08T08:55:17.612Z,26.14
2018-06-08T08:57:45.148Z,26.20
2018-06-08T09:00:12.059Z,26.25
2018-06-08T09:02:39.007Z,26.32
2018-06-08T09:05:05.946Z,26.35
2018-06-08T09:07:32.914Z,26.45
2018-06-08T09:09:59.812Z,26.50
2018-06-08T09:12:26.854Z,26.59
2018-06-08T09:14:53.808Z,26.63
2018-06-08T09:17:20.792Z,26.71
2018-06-08T09:19:47.711Z,26.74
2018-06-08T09:22:14.612Z,26.79
2018-06-08T09:24:41.524Z,26.88
2018-06-08T09:27:08.647Z,26.90
2018-06-08T09:29:35.555Z,26.95
2018-06-08T09:32:02.623Z,27.04
2018-06-08T09:34:29.534Z,27.04
2018-06-08T09:36:56.591Z,27.10
2018-06-08T09:39:23.483Z,27.12
2018-06-08T09:41:50.672Z,27.16
2018-06-08T09:44:17.571Z,27.20
2018-06-08T09:46:44.732Z,27.30
2018-06-08T09:49:11.651Z,27.35
2018-06-08T09:51:38.586Z,27.40
2018-06-08T09:54:05.515Z,27.46
2018-06-08T09:56:32.423Z,27.51
2018-06-08T09:58:59.441Z,27.62
2018-06-08T10:01:26.912Z,27.69
2018-06-08T10:03:53.827Z,27.72
2018-06-08T10:06:20.743Z,27.77
2018-06-08T10:08:47.711Z,27.78
2018-06-08T10:11:15.435Z,27.79
2018-06-08T10:13:42.444Z,27.88
2018-06-08T10:16:09.354Z,28.00
2018-06-08T10:18:36.417Z,28.05
2018-06-08T10:21:03.387Z,28.13
2018-06-08T10:23:30.340Z,28.21
2018-06-08T10:25:57.251Z,28.27
2018-06-08T10:28:24.238Z,28.33
2018-06-08T10:30:51.263Z,28.41
2018-06-08T10:33:18.222Z,28.48
2018-06-08T10:35:45.132Z,28.50
2018-06-08T10:38:12.184Z,28.54
2018-06-08T10:40:39.347Z,28.59
2018-06-08T10:43:06.579Z,28.67
2018-06-08T10:45:33.547Z,28.66
2018-06-08T10:48:00.495Z,28.73
2018-06-08T10:50:27.399Z,28.68
2018-06-08T10:52:54.331Z,28.73
2018-06-08T10:55:21.235Z,28.71
2018-06-08T10:57:48.166Z,28.73
2018-06-08T11:00:15.084Z,28.72
2018-06-08T11:02:42.136Z,28.78
2018-06-08T11:05:09.035Z,28.92
2018-06-08T11:07:35.989Z,29.02
2018-06-08T11:10:02.935Z,29.02
2018-06-08T11:12:30.616Z,29.08
2018-06-08T11:14:57.527Z,29.09
2018-06-08T11:17:24.508Z,29.19
2018-06-08T11:19:51.460Z,29.26
2018-06-08T11:22:18.685Z,29.35
2018-06-08T11:24:45.550Z,29.47
2018-06-08T11:27:12.545Z,29.50
2018-06-08T11:29:39.443Z,29.44
2018-06-08T11:32:06.411Z,29.49
2018-06-08T11:34:33.482Z,29.50
2018-06-08T11:37:00.439Z,29.57
2018-06-08T11:39:27.471Z,29.60
2018-06-08T11:41:54.634Z,29.61
2018-06-08T11:44:21.575Z,29.60
2018-06-08T11:46:48.478Z,29.73
2018-06-08T11:49:15.418Z,29.73
2018-06-08T11:51:42.343Z,29.62
2018-06-08T11:54:09.301Z,29.75
2018-06-08T11:56:36.211Z,29.87
2018-06-08T11:59:03.145Z,29.97
2018-06-08T12:01:30.077Z,29.97
2018-06-08T12:03:57.035Z,30.04
2018-06-08T12:06:24.063Z,30.08
2018-06-08T12:08:51.019Z,30.13
2018-06-08T12:11:17.911Z,30.24
2018-06-08T12:13:44.848Z,30.33
2018-06-08T12:16:11.803Z,30.35
2018-06-08T12:18:38.750Z,30.47
2018-06-08T12:21:05.676Z,30.54
2018-06-08T12:23:32.635Z,30.51
2018-06-08T12:25:59.531Z,30.39
2018-06-08T12:28:26.455Z,30.35
2018-06-08T12:30:53.424Z,30.33
2018-06-08T12:33:20.342Z,30.37
2018-06-08T12:35:47.458Z,30.42
2018-06-08T12:38:14.387Z,30.45
2018-06-08T12:40:41.291Z,30.51
2018-06-08T12:43:08.252Z,30.64
2018-06-08T12:45:35.248Z,30.77
2018-06-08T12:48:02.278Z,30.89
2018-06-08T12:50:29.238Z,30.97
2018-06-08T12:52:56.187Z,31.06
2018-06-08T12:55:23.104Z,30.95
2018-06-08T12:57:50.149Z,30.78
2018-06-08T13:00:17.055Z,30.86
2018-06-08T13:02:44.031Z,30.77
2018-06-08T13:05:10.958Z,30.77
2018-06-08T13:07:37.942Z,30.87
2018-06-08T13:10:04.895Z,30.97
2018-06-08T13:12:32.075Z,31.08
2018-06-08T13:14:59.191Z,31.04
2018-06-08T13:17:26.127Z,31.15
2018-06-08T13:19:53.107Z,31.27
2018-06-08T13:22:20.387Z,31.35
2018-06-08T13:24:47.331Z,31.40
2018-06-08T13:27:14.267Z,31.41
2018-06-08T13:29:41.163Z,31.41
2018-06-08T13:32:08.179Z,31.48
2018-06-08T13:34:35.119Z,31.42
2018-06-08T13:37:02.171Z,31.46
2018-06-08T13:39:29.114Z,31.29
2018-06-08T13:41:56.143Z,31.23
2018-06-08T13:44:23.092Z,31.12
2018-06-08T13:46:49.995Z,31.21
2018-06-08T13:49:16.944Z,31.30
2018-06-08T13:51:43.870Z,31.33
2018-06-08T13:54:10.807Z,31.29
2018-06-08T13:56:37.783Z,31.34
2018-06-08T13:59:05.173Z,31.34
2018-06-08T14:01:32.148Z,31.39
2018-06-08T14:03:59.456Z,31.47
2018-06-08T14:06:26.376Z,31.50
2018-06-08T14:08:53.299Z,31.41
2018-06-08T14:11:20.322Z,31.43
2018-06-08T14:13:47.379Z,31.47
2018-06-08T14:16:14.307Z,31.43
2018-06-08T14:18:41.330Z,31.42
2018-06-08T14:21:08.291Z,31.35
2018-06-08T14:23:35.195Z,31.35
2018-06-08T14:26:02.127Z,31.32
2018-06-08T14:28:29.062Z,31.24
2018-06-08T14:30:55.960Z,31.23
2018-06-08T14:33:22.859Z,31.18
2018-06-08T14:35:49.796Z,31.15
2018-06-08T14:38:16.820Z,31.10
2018-06-08T14:40:43.879Z,31.08
2018-06-08T14:43:10.776Z,31.09
2018-06-08T14:45:37.703Z,31.18
2018-06-08T14:48:04.624Z,31.08
2018-06-08T14:50:31.543Z,31.11
2018-06-08T14:52:58.461Z,30.92
2018-06-08T14:55:25.456Z,30.87
2018-06-08T14:57:52.404Z,30.87
2018-06-08T15:00:19.446Z,30.90
2018-06-08T15:02:46.391Z,30.95
2018-06-08T15:05:13.411Z,31.02
2018-06-08T15:07:40.323Z,30.94
2018-06-08T15:10:07.287Z,30.88
2018-06-08T15:12:34.191Z,30.95
2018-06-08T15:15:01.183Z,30.86
2018-06-08T15:17:28.093Z,30.83
2018-06-08T15:19:55.012Z,30.77
2018-06-08T15:22:21.926Z,30.81
2018-06-08T15:24:48.899Z,30.84
2018-06-08T15:27:15.830Z,30.87
2018-06-08T15:29:42.760Z,30.81
2018-06-08T15:32:10.459Z,30.78
2018-06-08T15:34:37.448Z,30.81
2018-06-08T15:37:04.499Z,30.79
2018-06-08T15:39:31.420Z,30.83
2018-06-08T15:41:58.314Z,30.87
2018-06-08T15:44:25.247Z,30.85
2018-06-08T15:46:52.191Z,30.66
2018-06-08T15:49:19.110Z,30.61
2018-06-08T15:51:46.062Z,30.64
2018-06-08T15:54:13.297Z,30.67
2018-06-08T15:56:40.599Z,30.68
2018-06-08T15:59:07.503Z,30.70
2018-06-08T16:01:34.563Z,30.70
2018-06-08T16:04:01.599Z,30.65
2018-06-08T16:06:28.735Z,30.63
2018-06-08T16:08:55.778Z,30.59
2018-06-08T16:11:22.718Z,30.53
2018-06-08T16:13:49.649Z,30.54
2018-06-08T16:16:16.678Z,30.56
2018-06-08T16:18:43.575Z,30.52
2018-06-08T16:21:10.538Z,30.56
2018-06-08T16:23:37.488Z,30.48
2018-06-08T16:26:04.423Z,30.43
2018-06-08T16:28:31.372Z,30.48
2018-06-08T16:30:58.292Z,30.28
2018-06-08T16:33:25.206Z,30.29
2018-06-08T16:35:52.150Z,30.32
2018-06-08T16:38:19.071Z,30.32
2018-06-08T16:40:46.043Z,30.34
2018-06-08T16:43:12.998Z,30.30
2018-06-08T16:45:39.971Z,29.93
2018-06-08T16:48:06.895Z,29.85
2018-06-08T16:50:33.851Z,29.84
2018-06-08T16:53:00.791Z,29.77
2018-06-08T16:55:27.773Z,29.70
2018-06-08T16:57:54.763Z,29.66
2018-06-08T17:00:21.716Z,29.57
2018-06-08T17:02:48.665Z,29.61
2018-06-08T17:05:15.647Z,29.57
2018-06-08T17:07:42.570Z,29.50
2018-06-08T17:10:09.467Z,29.46
2018-06-08T17:12:36.408Z,29.36
2018-06-08T17:15:03.343Z,29.34
2018-06-08T17:17:30.326Z,29.31
2018-06-08T17:19:57.280Z,29.24
2018-06-08T17:22:24.341Z,29.11
2018-06-08T17:24:51.259Z,29.08
2018-06-08T17:27:18.691Z,29.05
2018-06-08T17:29:45.590Z,29.03
2018-06-08T17:32:12.888Z,29.04
2018-06-08T17:34:39.847Z,29.00
2018-06-08T17:37:06.799Z,28.94
2018-06-08T17:39:33.755Z,28.86
2018-06-08T17:42:00.683Z,28.77
2018-06-08T17:44:27.657Z,28.67
2018-06-08T17:46:54.579Z,28.60
2018-06-08T17:49:21.507Z,28.52
2018-06-08T17:51:48.439Z,28.46
2018-06-08T17:54:15.367Z,28.41
2018-06-08T17:56:42.304Z,28.29
2018-06-08T17:59:09.340Z,28.19
2018-06-08T18:01:36.243Z,28.10
2018-06-08T18:04:03.274Z,27.98
2018-06-08T18:06:30.177Z,27.93
2018-06-08T18:08:57.207Z,27.93
2018-06-08T18:11:24.183Z,27.91
2018-06-08T18:13:51.111Z,27.81
2018-06-08T18:16:18.027Z,27.76
2018-06-08T18:18:44.959Z,27.72
2018-06-08T18:21:11.859Z,27.72
2018-06-08T18:23:38.775Z,27.60
2018-06-08T18:26:05.702Z,27.60
2018-06-08T18:28:32.694Z,27.58
2018-06-08T18:31:00.248Z,27.50
2018-06-08T18:33:27.368Z,27.48
2018-06-08T18:35:54.331Z,27.39
2018-06-08T18:38:21.243Z,27.30
2018-06-08T18:40:48.147Z,27.22
2018-06-08T18:43:15.067Z,27.20
2018-06-08T18:45:42.047Z,27.17
2018-06-08T18:48:08.976Z,27.15
2018-06-08T18:50:35.907Z,27.10
2018-06-08T18:53:02.818Z,27.07
2018-06-08T18:55:29.858Z,27.03
2018-06-08T18:57:56.784Z,26.95
2018-06-08T19:00:23.684Z,26.89
2018-06-08T19:02:50.611Z,26.82
2018-06-08T19:05:17.506Z,26.80
2018-06-08T19:07:44.451Z,26.77
2018-06-08T19:10:11.380Z,26.73
2018-06-08T19:12:38.310Z,26.70
2018-06-08T19:15:05.267Z,26.66
2018-06-08T19:17:32.189Z,26.57
2018-06-08T19:19:59.091Z,26.50
2018-06-08T19:22:26.118Z,26.44
2018-06-08T19:24:53.006Z,26.36
2018-06-08T19:27:20.000Z,26.37
2018-06-08T19:29:46.952Z,26.35
2018-06-08T19:32:13.933Z,26.21
2018-06-08T19:34:40.867Z,26.13
2018-06-08T19:37:07.775Z,26.10
2018-06-08T19:39:34.703Z,26.06
2018-06-08T19:42:01.591Z,26.05
2018-06-08T19:44:28.531Z,25.96
2018-06-08T19:46:55.435Z,25.86
2018-06-08T19:49:22.376Z,25.83
2018-06-08T19:51:49.286Z,25.82
2018-06-08T19:54:16.214Z,25.73
2018-06-08T19:56:43.547Z,25.70
2018-06-08T19:59:10.575Z,25.66
2018-06-08T20:01:37.487Z,25.63
2018-06-08T20:04:04.427Z,25.59
2018-06-08T20:06:31.350Z,25.57
2018-06-08T20:08:58.463Z,25.53
2018-06-08T20:11:25.471Z,25.51
2018-06-08T20:13:52.727Z,25.44
2018-06-08T20:16:19.659Z,25.37
2018-06-08T20:18:46.755Z,25.33
2018-06-08T20:21:13.675Z,25.33
2018-06-08T20:23:40.614Z,25.29
2018-06-08T20:26:07.650Z,25.23
2018-06-08T20:28:34.716Z,25.18
2018-06-08T20:31:01.656Z,25.12
2018-06-08T20:33:28.627Z,25.09
2018-06-08T20:35:55.679Z,25.08
2018-06-08T20:38:22.571Z,25.01
2018-06-08T20:40:49.482Z,24.95
2018-06-08T20:43:16.383Z,24.90
2018-06-08T20:45:43.295Z,24.90
2018-06-08T20:48:10.192Z,24.87
2018-06-08T20:50:37.119Z,24.84
2018-06-08T20:53:04.211Z,24.81
2018-06-08T20:55:31.151Z,24.79
2018-06-08T20:57:59.954Z,24.76
2018-06-08T21:00:26.895Z,24.73
2018-06-08T21:02:53.785Z,24.69
2018-06-08T21:05:20.710Z,24.64
2018-06-08T21:07:47.614Z,24.61
2018-06-08T21:10:14.578Z,24.59
2018-06-08T21:12:41.499Z,24.55
2018-06-08T21:15:08.520Z,24.54
2018-06-08T21:17:35.412Z,24.54
2018-06-08T21:20:02.495Z,24.54
2018-06-08T21:22:29.391Z,24.55
2018-06-08T21:24:56.430Z,24.54
2018-06-08T21:27:23.343Z,24.51
2018-06-08T21:29:50.394Z,24.50
2018-06-08T21:32:17.310Z,24.48
2018-06-08T21:34:44.326Z,24.46
2018-06-08T21:37:11.236Z,24.44
2018-06-08T21:39:38.122Z,24.47
2018-06-08T21:42:05.079Z,24.41
2018-06-08T21:44:31.971Z,24.43
2018-06-08T21:46:58.914Z,24.40
2018-06-08T21:49:25.811Z,24.36
2018-06-08T21:51:52.723Z,24.33
2018-06-08T21:54:19.637Z,24.32
2018-06-08T21:56:46.587Z,24.29
2018-06-08T21:59:13.615Z,24.27
2018-06-08T22:01:40.547Z,24.27
2018-06-08T22:04:07.448Z,24.23
2018-06-08T22:06:34.335Z,24.21
2018-06-08T22:09:01.239Z,24.17
2018-06-08T22:11:28.195Z,24.13
2018-06-08T22:13:55.442Z,24.07
2018-06-08T22:16:22.374Z,24.04
2018-06-08T22:18:49.289Z,24.01
2018-06-08T22:21:16.266Z,23.97
2018-06-08T22:23:43.170Z,23.93
2018-06-08T22:26:10.124Z,23.90
2018-06-08T22:28:37.080Z,23.86
2018-06-08T22:31:04.050Z,23.80
2018-06-08T22:33:31.079Z,23.76
2018-06-08T22:35:58.012Z,23.68
2018-06-08T22:38:24.923Z,23.62
2018-06-08T22:40:51.847Z,23.57
2018-06-08T22:43:18.783Z,23.53
2018-06-08T22:45:45.690Z,23.47
2018-06-08T22:48:12.607Z,23.43
2018-06-08T22:50:39.505Z,23.40
2018-06-08T22:53:06.575Z,23.37
2018-06-08T22:55:33.474Z,23.34
2018-06-08T22:58:00.927Z,23.32
2018-06-08T23:00:27.915Z,23.31
2018-06-08T23:02:54.855Z,23.29
2018-06-08T23:05:21.781Z,23.27
2018-06-08T23:07:48.738Z,23.25
2018-06-08T23:10:15.642Z,23.24
2018-06-08T23:12:43.067Z,23.22
2018-06-08T23:15:09.999Z,23.22
2018-06-08T23:17:36.966Z,23.20
2018-06-08T23:20:04.056Z,23.19
2018-06-08T23:22:30.968Z,23.17
2018-06-08T23:24:57.986Z,23.17
2018-06-08T23:27:24.890Z,23.16
2018-06-08T23:29:52.690Z,23.14
2018-06-08T23:32:19.551Z,23.13
2018-06-08T23:34:46.459Z,23.12
2018-06-08T23:37:13.346Z,23.08
2018-06-08T23:39:40.255Z,23.05
2018-06-08T23:42:07.146Z,23.02
2018-06-08T23:44:34.071Z,22.98
2018-06-08T23:47:01.027Z,22.95
2018-06-08T23:49:27.935Z,22.92
2018-06-08T23:51:54.827Z,22.86
2018-06-08T23:54:21.779Z,22.83
2018-06-08T23:56:49.053Z,22.80
2018-06-08T23:59:15.973Z,22.75
